aviador You're here:

K1P1 Decoded Metar

PLYMOUTH in NH, USA
Report Time2017-09-26 06:55:00
UTC Time2017-09-26 07:07:17
Flight Rules lifr LIFR
WindCalm
Visibility402 m
Phenomena:Fog
Clouds:Overcast 001 Hf
Expected CloudBase > 400 ft AGL from Temp-Dew spread
Ceiling100 ft
Temp19°C (ISA +5)
Dew Point18°C (94% RH)
QNH1018 hPa
Density Alt1,198 ft
Elevation505 ft
Report Wrong Elevation
Raw Report
METAR K1P1 260655Z AUTO 00000KT 1/4SM FG OVC001 19/18 A3005 RMK AO2
T01850178=

Extra information for K1P1:More info

Metar Taf Metar & Taf Last 4 Metars F.Rules Stats Wind Profile Meteogram Temp Stats Airport Information Weather charts Add Link Nearby VenuesMetar ALERT Operation Metar Decoded Social comments

AIRNAV info for K1P1